Terminal Aerodrome Forecast
Issued by NWS Twin Cities, MN

Home | Current Version | Previous Version | Text Only | Print | Product List | Glossary On
Versions: 1 2 3 4 5 6 7 8 9 10 11 12 13 14 15 16 17
000
FTUS43 KMPX 021700
TAFSTC
TAF
KSTC 021734Z 0218/0318 24009KT P6SM SCT100
     FM030000 19005KT P6SM FEW200
     FM031200 18008KT P6SM VCSH SCT100 BKN200
     FM031700 16010KT 6SM -RA BR SCT060 BKN100=

USA.gov is the U.S. government's official web portal to all federal, state and local government web resources and services.